Time;durP1;ratioP1;P1;durP2;ratioP2;P2;SDS_P1;SDS_P2;PMS_P1;PMS_P2;Temp;Humidity;BMP_temperature;BMP_pressure;BME280_temperature;BME280_humidity;BME280_pressure;Samples;Min_cycle;Max_cycle;Signal;HPM_P1;HPM_P2
2022/04/04 00:00:05;;;;;;;1.35;0.80;;;20.60;35.30;;;;;;4999458;28;20094;-64
2022/04/04 00:02:30;;;;;;;1.40;0.80;;;20.60;35.30;;;;;;5033365;28;20218;-63
2022/04/04 00:04:56;;;;;;;0.80;0.80;;;20.60;35.30;;;;;;5000531;28;20903;-63
2022/04/04 00:07:22;;;;;;;1.25;0.85;;;20.60;35.30;;;;;;5015852;28;20042;-63
2022/04/04 00:09:47;;;;;;;1.05;0.90;;;20.60;35.30;;;;;;5015000;28;20083;-64
2022/04/04 00:12:13;;;;;;;0.77;0.77;;;20.60;35.30;;;;;;5031975;28;20052;-64
2022/04/04 00:14:39;;;;;;;1.45;0.80;;;20.50;35.30;;;;;;5000645;28;20091;-63
2022/04/04 00:17:05;;;;;;;0.85;0.80;;;20.50;35.20;;;;;;4998697;28;20053;-63
2022/04/04 00:19:31;;;;;;;1.77;0.73;;;20.50;35.20;;;;;;4996603;28;20159;-63
2022/04/04 00:21:57;;;;;;;1.10;0.80;;;20.50;35.30;;;;;;5003835;28;20551;-64
2022/04/04 00:24:23;;;;;;;1.25;0.80;;;20.50;35.20;;;;;;5014462;28;20107;-63
2022/04/04 00:26:48;;;;;;;0.95;0.80;;;20.50;35.10;;;;;;4997519;28;20060;-63
2022/04/04 00:29:14;;;;;;;1.15;0.90;;;20.50;35.20;;;;;;4999305;28;20041;-64
2022/04/04 00:31:40;;;;;;;0.93;0.80;;;20.50;35.10;;;;;;5000123;28;20041;-63
2022/04/04 00:34:05;;;;;;;1.40;0.80;;;20.50;35.20;;;;;;4996062;28;20060;-64
2022/04/04 00:36:31;;;;;;;1.35;0.93;;;20.50;35.10;;;;;;5001362;28;20904;-63
2022/04/04 00:38:56;;;;;;;1.10;0.73;;;20.50;35.20;;;;;;4996255;28;20046;-62
2022/04/04 00:41:22;;;;;;;1.60;0.82;;;20.40;35.10;;;;;;4998979;28;20044;-63
2022/04/04 00:43:52;;;;;;;1.77;0.80;;;20.40;35.20;;;;;;5035056;28;20049;-63
2022/04/04 00:46:19;;;;;;;0.68;0.68;;;20.40;35.20;;;;;;5006356;28;20041;-65
2022/04/04 00:48:44;;;;;;;1.33;0.70;;;20.40;35.20;;;;;;4998485;28;20567;-65
2022/04/04 00:51:10;;;;;;;0.70;0.70;;;20.40;35.20;;;;;;5005369;28;20041;-64
2022/04/04 00:53:36;;;;;;;1.35;0.95;;;20.40;35.10;;;;;;4996483;28;20611;-64
2022/04/04 00:56:02;;;;;;;2.05;1.10;;;20.40;35.10;;;;;;4996472;28;20132;-65
2022/04/04 00:58:32;;;;;;;1.27;0.73;;;20.40;35.20;;;;;;4998669;28;21085;-64
2022/04/04 01:00:58;;;;;;;1.50;0.80;;;20.40;35.00;;;;;;5002110;28;20045;-63
2022/04/04 01:03:25;;;;;;;1.33;0.88;;;20.30;35.10;;;;;;5002277;28;20038;-63
2022/04/04 01:05:51;;;;;;;1.23;0.85;;;20.30;35.00;;;;;;5000998;28;20141;-64
2022/04/04 01:08:16;;;;;;;0.88;0.80;;;20.30;35.00;;;;;;5016188;28;20049;-63
2022/04/04 01:10:44;;;;;;;1.23;1.05;;;20.30;35.00;;;;;;5015079;28;20098;-63
2022/04/04 01:13:11;;;;;;;1.05;1.00;;;20.30;35.00;;;;;;5003291;28;20040;-63
2022/04/04 01:15:37;;;;;;;1.17;0.88;;;20.30;35.00;;;;;;4999999;28;20048;-63
2022/04/04 01:18:04;;;;;;;1.63;0.98;;;20.30;35.00;;;;;;5015772;28;20049;-63
2022/04/04 01:20:31;;;;;;;1.05;0.95;;;20.30;35.00;;;;;;5016308;28;20053;-63
2022/04/04 01:22:57;;;;;;;1.42;1.20;;;20.30;35.00;;;;;;4998623;28;20786;-63
2022/04/04 01:25:28;;;;;;;1.83;1.00;;;20.20;34.90;;;;;;4998497;28;20448;-63
2022/04/04 01:27:55;;;;;;;0.80;0.80;;;20.20;34.90;;;;;;5016444;28;20084;-64
2022/04/04 01:30:22;;;;;;;1.55;1.10;;;20.20;34.90;;;;;;4995943;28;20564;-62
2022/04/04 01:32:49;;;;;;;0.82;0.80;;;20.20;35.00;;;;;;5015330;28;20053;-64
2022/04/04 01:35:18;;;;;;;1.13;1.02;;;20.20;35.00;;;;;;5013220;28;20049;-63
2022/04/04 01:37:44;;;;;;;0.80;0.80;;;20.20;35.00;;;;;;4999520;28;20057;-63
2022/04/04 01:40:10;;;;;;;1.38;1.13;;;20.20;35.00;;;;;;4995790;28;20048;-65
2022/04/04 01:42:37;;;;;;;1.65;1.15;;;20.20;35.00;;;;;;4997098;28;20060;-63
2022/04/04 01:45:08;;;;;;;0.80;0.80;;;20.20;35.00;;;;;;4999629;28;20057;-63
2022/04/04 01:47:34;;;;;;;1.67;1.05;;;20.20;35.00;;;;;;5017246;28;20103;-65
2022/04/04 01:50:00;;;;;;;0.90;0.90;;;20.20;35.00;;;;;;4999471;28;20520;-62
2022/04/04 01:52:26;;;;;;;1.92;1.10;;;20.10;34.90;;;;;;4997771;28;20097;-65
2022/04/04 01:54:52;;;;;;;1.27;1.17;;;20.20;34.90;;;;;;5015560;28;21026;-62
2022/04/04 01:57:17;;;;;;;1.52;1.05;;;20.10;34.90;;;;;;5007929;28;20054;-62
2022/04/04 01:59:43;;;;;;;0.88;0.88;;;20.10;34.90;;;;;;5009394;28;20061;-63
2022/04/04 02:02:09;;;;;;;2.10;1.15;;;20.10;34.90;;;;;;4996781;28;20103;-64
2022/04/04 02:04:35;;;;;;;1.00;0.95;;;20.10;34.90;;;;;;5014049;28;20041;-63
2022/04/04 02:07:01;;;;;;;1.35;1.25;;;20.10;34.90;;;;;;5018131;28;20048;-62
2022/04/04 02:09:27;;;;;;;1.77;1.27;;;20.10;34.90;;;;;;4996407;28;20525;-62
2022/04/04 02:11:53;;;;;;;1.67;0.98;;;20.10;34.90;;;;;;4999477;28;20086;-63
2022/04/04 02:14:18;;;;;;;1.33;1.00;;;20.10;35.00;;;;;;5001807;28;20053;-63
2022/04/04 02:16:45;;;;;;;2.42;1.20;;;20.00;35.00;;;;;;4999905;28;20037;-63
2022/04/04 02:19:10;;;;;;;1.73;1.50;;;20.00;35.00;;;;;;5034165;28;20049;-64
2022/04/04 02:21:36;;;;;;;2.00;1.25;;;20.00;35.00;;;;;;5002843;28;20119;-64
2022/04/04 02:24:04;;;;;;;1.90;1.40;;;20.00;35.00;;;;;;5000399;28;20037;-64
2022/04/04 02:26:31;;;;;;;1.13;0.93;;;20.00;35.00;;;;;;5008058;28;20084;-64
2022/04/04 02:28:56;;;;;;;1.50;1.40;;;20.00;35.00;;;;;;5017723;28;20049;-64
2022/04/04 02:31:22;;;;;;;2.15;1.40;;;20.00;35.00;;;;;;5006913;28;20139;-64
2022/04/04 02:33:48;;;;;;;1.73;1.20;;;20.00;35.00;;;;;;5004834;28;20115;-64
2022/04/04 02:36:13;;;;;;;2.05;1.58;;;20.00;35.00;;;;;;5010904;28;20453;-63
2022/04/04 02:38:39;;;;;;;1.58;1.40;;;20.00;35.00;;;;;;5000263;28;20056;-65
2022/04/04 02:41:05;;;;;;;1.83;1.52;;;19.90;35.00;;;;;;5001992;28;20049;-64
2022/04/04 02:43:32;;;;;;;1.50;1.40;;;20.00;35.10;;;;;;5001966;28;20580;-63
2022/04/04 02:45:58;;;;;;;1.65;1.50;;;20.00;35.00;;;;;;5002272;28;20425;-63
2022/04/04 02:48:23;;;;;;;2.05;1.40;;;19.90;35.00;;;;;;5000844;28;20142;-63
2022/04/04 02:50:50;;;;;;;2.13;1.75;;;19.90;35.00;;;;;;5003815;28;20136;-63
2022/04/04 02:53:16;;;;;;;1.40;1.23;;;19.90;34.90;;;;;;5010069;28;20048;-63
2022/04/04 02:58:26;;;;;;;2.05;1.40;;;19.90;35.00;;;;;;5019058;28;20107;-64
2022/04/04 03:00:52;;;;;;;1.75;1.58;;;19.90;35.00;;;;;;5018226;28;20114;-63
2022/04/04 03:03:18;;;;;;;2.55;1.60;;;19.90;35.10;;;;;;5017686;28;20434;-64
2022/04/04 03:05:43;;;;;;;2.45;1.40;;;19.80;35.00;;;;;;4998863;28;20053;-64
2022/04/04 03:08:10;;;;;;;2.08;1.50;;;19.90;35.10;;;;;;4999390;28;20048;-63
2022/04/04 03:10:36;;;;;;;2.42;1.60;;;19.90;35.10;;;;;;5036570;28;20051;-64
2022/04/04 03:13:05;;;;;;;3.03;1.70;;;19.90;35.10;;;;;;5019572;28;20037;-63
2022/04/04 03:15:34;;;;;;;1.75;1.40;;;19.80;35.10;;;;;;5017871;28;20128;-62
2022/04/04 03:18:00;;;;;;;1.70;1.60;;;19.80;35.10;;;;;;5002166;28;20052;-63
2022/04/04 03:20:27;;;;;;;1.35;1.25;;;19.80;35.10;;;;;;5003742;28;20053;-63
2022/04/04 03:22:55;;;;;;;2.05;1.70;;;19.80;35.00;;;;;;5016809;28;20489;-63
2022/04/04 03:25:22;;;;;;;2.45;1.67;;;19.80;35.20;;;;;;5016258;28;20128;-62
2022/04/04 03:27:48;;;;;;;2.55;1.50;;;19.80;35.10;;;;;;5001730;28;20081;-63
2022/04/04 03:30:25;;;;;;;2.20;1.52;;;19.80;35.00;;;;;;5000564;28;20049;-64
2022/04/04 03:32:51;;;;;;;3.05;1.30;;;19.80;35.00;;;;;;5018961;28;20094;-64
2022/04/04 03:35:18;;;;;;;1.40;1.20;;;19.80;35.00;;;;;;5005024;28;20057;-64
2022/04/04 03:37:47;;;;;;;1.60;1.50;;;19.80;35.00;;;;;;5014184;28;20064;-64
2022/04/04 03:40:13;;;;;;;1.35;1.20;;;19.80;35.00;;;;;;5032429;28;20079;-62
2022/04/04 03:42:43;;;;;;;1.40;1.30;;;19.80;35.00;;;;;;5000335;28;20069;-64
2022/04/04 03:45:11;;;;;;;2.80;1.70;;;19.80;35.00;;;;;;5022729;28;20049;-63
2022/04/04 03:47:38;;;;;;;2.47;1.45;;;19.70;34.90;;;;;;5000699;28;20316;-63
2022/04/04 03:50:05;;;;;;;1.65;1.55;;;19.80;35.00;;;;;;5011549;28;20045;-64
2022/04/04 03:52:31;;;;;;;1.52;1.30;;;19.80;35.00;;;;;;5006707;28;20045;-64
2022/04/04 03:54:57;;;;;;;1.67;1.50;;;19.80;35.10;;;;;;5017742;28;20529;-65
2022/04/04 03:57:23;;;;;;;2.75;1.67;;;19.70;35.00;;;;;;5021923;28;20151;-64
2022/04/04 03:59:49;;;;;;;1.50;1.30;;;19.70;34.90;;;;;;5015908;28;20100;-63
2022/04/04 04:02:14;;;;;;;1.63;1.20;;;19.70;34.90;;;;;;5016601;28;20053;-64
2022/04/04 04:04:40;;;;;;;2.03;1.40;;;19.70;35.00;;;;;;5015011;28;20045;-63
2022/04/04 04:07:09;;;;;;;2.17;1.20;;;19.70;35.00;;;;;;4998081;28;20457;-64
2022/04/04 04:09:35;;;;;;;1.85;1.40;;;19.70;35.00;;;;;;5014169;28;20128;-63
2022/04/04 04:12:01;;;;;;;2.13;1.58;;;19.70;35.00;;;;;;4998375;28;20127;-63
2022/04/04 04:14:26;;;;;;;2.35;1.50;;;19.70;35.10;;;;;;4997851;28;20123;-63
2022/04/04 04:16:52;;;;;;;2.35;1.00;;;19.70;35.00;;;;;;5014213;28;20040;-64
2022/04/04 04:22:02;;;;;;;1.65;1.42;;;19.70;35.10;;;;;;5015886;28;20068;-63
2022/04/04 04:24:28;;;;;;;3.03;1.52;;;19.70;35.20;;;;;;4998768;28;20037;-64
2022/04/04 04:26:54;;;;;;;2.67;1.50;;;19.70;35.20;;;;;;5006477;28;20049;-66
2022/04/04 04:29:20;;;;;;;2.47;1.60;;;19.70;35.20;;;;;;5014227;28;20164;-64
2022/04/04 04:31:46;;;;;;;1.60;1.20;;;19.80;35.30;;;;;;5007177;28;20037;-64
2022/04/04 04:34:11;;;;;;;1.80;1.70;;;19.80;35.40;;;;;;4997220;28;20056;-62
2022/04/04 04:36:39;;;;;;;2.25;1.45;;;19.70;35.30;;;;;;5000337;28;20041;-63
2022/04/04 04:39:06;;;;;;;2.17;1.70;;;19.80;35.50;;;;;;5016543;28;20049;-64
2022/04/04 04:41:32;;;;;;;2.17;1.80;;;19.80;35.50;;;;;;5001244;28;20057;-63
2022/04/04 04:43:58;;;;;;;1.95;1.75;;;19.80;35.50;;;;;;5013075;28;20052;-63
2022/04/04 04:46:24;;;;;;;2.10;1.67;;;19.80;35.60;;;;;;5017158;28;20044;-64
2022/04/04 04:48:50;;;;;;;2.22;1.70;;;19.80;35.80;;;;;;5007127;28;20060;-63
2022/04/04 04:51:16;;;;;;;2.67;1.70;;;19.80;35.90;;;;;;4997242;28;20045;-61
2022/04/04 04:53:41;;;;;;;2.92;1.70;;;19.70;35.90;;;;;;5016800;28;21234;-64
2022/04/04 04:56:07;;;;;;;1.92;1.73;;;19.80;36.00;;;;;;5017915;28;20068;-65
2022/04/04 04:58:33;;;;;;;1.63;1.50;;;19.80;36.00;;;;;;5033608;28;20467;-64
2022/04/04 05:00:58;;;;;;;2.28;2.05;;;19.80;36.00;;;;;;5016993;28;20172;-66
2022/04/04 05:03:24;;;;;;;3.28;2.08;;;19.80;36.00;;;;;;4998905;28;20064;-63
2022/04/04 05:05:50;;;;;;;2.95;2.00;;;19.70;36.10;;;;;;5001436;28;20111;-64
2022/04/04 05:08:15;;;;;;;3.45;1.95;;;19.80;36.10;;;;;;5012780;28;20049;-64
2022/04/04 05:10:41;;;;;;;3.78;1.77;;;19.70;36.10;;;;;;5015596;28;20120;-64
2022/04/04 05:13:07;;;;;;;2.47;1.77;;;19.80;36.10;;;;;;5008887;28;20044;-64
2022/04/04 05:15:32;;;;;;;4.38;1.70;;;19.70;36.10;;;;;;5005872;28;20041;-63
2022/04/04 05:17:58;;;;;;;2.10;1.90;;;19.70;36.10;;;;;;5001400;28;20041;-63
2022/04/04 05:20:24;;;;;;;2.75;1.90;;;19.70;36.10;;;;;;5034169;28;20049;-64
2022/04/04 05:22:49;;;;;;;3.28;2.00;;;19.70;36.10;;;;;;4999735;28;20064;-64
2022/04/04 05:25:15;;;;;;;2.72;1.75;;;19.80;36.10;;;;;;5016484;28;20045;-64
2022/04/04 05:27:41;;;;;;;2.10;1.90;;;19.80;36.00;;;;;;5003076;28;20481;-64
2022/04/04 05:30:08;;;;;;;2.45;1.75;;;19.70;36.00;;;;;;4999440;28;20052;-65
2022/04/04 05:32:34;;;;;;;2.70;1.77;;;19.80;36.00;;;;;;5017462;28;20091;-64
2022/04/04 05:35:01;;;;;;;1.83;1.33;;;19.80;36.00;;;;;;5018237;28;20659;-65
2022/04/04 05:37:26;;;;;;;3.22;1.63;;;19.80;36.00;;;;;;5014719;28;20045;-64
2022/04/04 05:39:52;;;;;;;2.88;1.85;;;19.80;36.00;;;;;;4999583;28;20060;-64
2022/04/04 05:42:18;;;;;;;2.97;1.70;;;19.80;35.90;;;;;;5013078;28;20053;-65
2022/04/04 05:44:44;;;;;;;2.55;1.60;;;19.80;35.90;;;;;;5012696;28;20045;-62
2022/04/04 05:47:11;;;;;;;2.38;1.67;;;19.80;35.90;;;;;;4998022;28;20058;-65
2022/04/04 05:49:37;;;;;;;2.65;1.75;;;19.80;36.60;;;;;;4995815;28;20053;-63
2022/04/04 05:52:04;;;;;;;3.50;1.80;;;19.80;36.00;;;;;;5003117;28;20053;-64
2022/04/04 05:54:30;;;;;;;2.72;1.83;;;19.80;36.00;;;;;;5011291;28;20092;-64
2022/04/04 05:56:56;;;;;;;3.03;1.50;;;19.80;36.00;;;;;;5020494;28;20053;-65
2022/04/04 05:59:22;;;;;;;3.17;1.30;;;19.90;36.10;;;;;;5019348;28;20156;-64
2022/04/04 06:01:47;;;;;;;3.25;1.70;;;19.90;36.10;;;;;;5014123;28;20152;-63
2022/04/04 06:04:13;;;;;;;5.38;1.80;;;19.90;36.20;;;;;;4995009;28;20046;-62
2022/04/04 06:06:38;;;;;;;2.75;1.48;;;19.90;36.20;;;;;;5014866;28;20157;-62
2022/04/04 06:09:04;;;;;;;4.15;2.00;;;19.90;36.10;;;;;;4995827;28;20073;-63
2022/04/04 06:11:29;;;;;;;2.45;1.80;;;19.90;36.10;;;;;;5010712;28;20200;-62
2022/04/04 06:13:56;;;;;;;2.83;1.60;;;19.90;36.00;;;;;;5012357;28;20044;-61
2022/04/04 06:16:22;;;;;;;4.07;1.75;;;20.00;36.10;;;;;;5014093;28;20500;-62
2022/04/04 06:18:50;;;;;;;2.92;1.50;;;20.00;36.00;;;;;;5018658;28;20205;-62
2022/04/04 06:21:16;;;;;;;2.50;1.30;;;20.00;36.00;;;;;;5009694;28;20141;-62
2022/04/04 06:23:42;;;;;;;1.98;1.35;;;20.00;35.90;;;;;;5019761;28;20140;-62
2022/04/04 06:26:07;;;;;;;2.47;1.85;;;20.00;35.80;;;;;;5011368;28;20050;-64
2022/04/04 06:28:34;;;;;;;1.90;1.70;;;20.00;35.80;;;;;;5012890;28;20115;-62
2022/04/04 06:31:01;;;;;;;1.50;1.40;;;20.00;35.80;;;;;;5011251;28;20712;-61
2022/04/04 06:33:27;;;;;;;3.03;1.90;;;20.00;35.80;;;;;;5010806;28;20103;-65
2022/04/04 06:35:53;;;;;;;2.42;1.50;;;20.00;35.80;;;;;;5009250;28;20049;-64
2022/04/04 06:38:19;;;;;;;2.45;1.73;;;20.10;35.80;;;;;;5014532;28;20057;-62
2022/04/04 06:40:45;;;;;;;3.42;1.75;;;20.00;35.70;;;;;;5009916;28;20482;-64
2022/04/04 06:43:11;;;;;;;2.17;1.40;;;20.10;35.70;;;;;;5002468;28;20533;-69
2022/04/04 06:45:36;;;;;;;3.08;1.50;;;20.10;35.80;;;;;;4999557;28;20052;-67
2022/04/04 06:48:02;;;;;;;4.15;1.77;;;20.10;35.90;;;;;;4997617;28;20489;-67
2022/04/04 06:50:30;;;;;;;2.13;1.35;;;20.10;35.90;;;;;;5013807;28;20447;-63
2022/04/04 06:52:56;;;;;;;2.88;1.75;;;20.10;36.00;;;;;;4996868;28;20041;-65
2022/04/04 06:55:22;;;;;;;4.43;1.60;;;20.10;36.00;;;;;;5012839;28;20053;-65
2022/04/04 06:57:48;;;;;;;2.53;2.10;;;20.10;36.00;;;;;;5014212;28;20405;-67
2022/04/04 07:00:16;;;;;;;2.08;1.70;;;20.20;36.00;;;;;;5013003;28;20080;-65
2022/04/04 07:02:43;;;;;;;2.85;1.20;;;20.20;36.10;;;;;;5012449;28;20095;-66
2022/04/04 07:05:09;;;;;;;2.17;1.55;;;20.20;36.10;;;;;;4998374;28;20073;-64
2022/04/04 07:07:35;;;;;;;3.60;1.67;;;20.20;36.10;;;;;;4994392;28;20076;-68
2022/04/04 07:10:03;;;;;;;2.17;1.63;;;20.20;36.10;;;;;;5013058;28;20152;-64
2022/04/04 07:12:29;;;;;;;3.28;1.73;;;20.20;36.40;;;;;;5014368;28;20436;-65
2022/04/04 07:14:54;;;;;;;1.85;1.50;;;20.20;36.10;;;;;;5014928;28;20050;-64
2022/04/04 07:17:20;;;;;;;3.38;2.15;;;20.20;36.20;;;;;;4997957;28;20049;-65
2022/04/04 07:19:46;;;;;;;4.75;2.10;;;20.20;36.10;;;;;;5015510;28;20100;-64
2022/04/04 07:22:11;;;;;;;3.08;1.85;;;20.20;36.20;;;;;;4999964;28;20584;-68
2022/04/04 07:24:37;;;;;;;6.65;2.03;;;20.30;36.30;;;;;;5015207;28;20335;-65
2022/04/04 07:27:03;;;;;;;3.92;1.85;;;20.30;36.40;;;;;;4999169;28;20547;-65
2022/04/04 07:29:29;;;;;;;5.07;1.50;;;20.30;36.40;;;;;;5004815;28;20052;-66
2022/04/04 07:31:55;;;;;;;4.65;1.77;;;20.30;36.50;;;;;;5021892;28;20038;-62
2022/04/04 07:34:20;;;;;;;3.38;1.75;;;20.30;36.50;;;;;;5014197;28;20041;-65
2022/04/04 07:36:46;;;;;;;2.90;1.52;;;20.30;36.50;;;;;;4997944;28;20069;-63
2022/04/04 07:39:12;;;;;;;2.42;1.70;;;20.30;36.50;;;;;;5013693;28;20053;-63
2022/04/04 07:41:38;;;;;;;2.75;1.75;;;20.40;36.60;;;;;;5003660;28;20167;-64
2022/04/04 07:44:05;;;;;;;4.03;1.63;;;20.40;36.60;;;;;;5013744;28;20433;-64
2022/04/04 07:46:31;;;;;;;1.83;1.55;;;20.40;36.60;;;;;;5012269;28;20069;-64
2022/04/04 07:48:58;;;;;;;1.63;1.52;;;20.40;36.60;;;;;;5012990;28;20049;-64
2022/04/04 07:51:24;;;;;;;1.90;1.73;;;20.40;36.60;;;;;;5012469;28;20060;-64
2022/04/04 07:53:50;;;;;;;2.22;1.60;;;20.40;36.60;;;;;;5013973;28;20065;-64
2022/04/04 07:56:15;;;;;;;2.10;1.40;;;20.40;36.60;;;;;;5016468;28;20061;-63
2022/04/04 07:58:41;;;;;;;2.78;1.75;;;20.40;36.50;;;;;;5012814;28;20677;-64
2022/04/04 08:01:07;;;;;;;2.85;1.70;;;20.40;36.60;;;;;;4995798;28;20129;-64
2022/04/04 08:03:34;;;;;;;3.50;1.60;;;20.40;36.60;;;;;;5011305;28;20618;-67
2022/04/04 08:06:00;;;;;;;2.42;1.42;;;20.50;36.80;;;;;;5011764;28;20045;-67
2022/04/04 08:08:25;;;;;;;2.08;1.45;;;20.50;36.90;;;;;;4996415;28;20064;-66
2022/04/04 08:10:51;;;;;;;2.92;1.58;;;20.50;36.90;;;;;;5010606;28;20049;-63
2022/04/04 08:13:17;;;;;;;4.50;1.73;;;20.50;37.00;;;;;;5009142;28;20049;-64
2022/04/04 08:15:42;;;;;;;4.38;1.70;;;20.50;37.00;;;;;;4995756;28;20100;-62
2022/04/04 08:18:08;;;;;;;3.65;1.75;;;20.50;37.10;;;;;;5012132;28;21026;-65
2022/04/04 08:20:34;;;;;;;2.63;1.85;;;20.50;37.10;;;;;;5014351;28;20443;-63
2022/04/04 08:23:00;;;;;;;3.08;1.40;;;20.50;37.20;;;;;;4994177;28;20041;-64
2022/04/04 08:25:25;;;;;;;3.53;1.40;;;20.50;37.30;;;;;;5012177;28;20722;-64
2022/04/04 08:27:51;;;;;;;1.83;1.55;;;20.50;37.40;;;;;;5012985;28;20049;-64
2022/04/04 08:30:18;;;;;;;2.28;1.50;;;20.50;37.50;;;;;;4996580;28;20049;-64
2022/04/04 08:32:44;;;;;;;2.50;1.35;;;20.50;37.50;;;;;;5012949;28;20148;-66
2022/04/04 08:35:12;;;;;;;3.72;1.67;;;20.50;37.60;;;;;;5012829;28;20045;-64
2022/04/04 08:37:41;;;;;;;2.97;1.38;;;20.60;37.70;;;;;;4997086;28;20049;-64
2022/04/04 08:40:09;;;;;;;2.30;1.40;;;20.50;37.70;;;;;;4993763;28;20132;-64
2022/04/04 08:42:36;;;;;;;2.60;1.60;;;20.60;37.80;;;;;;4993365;28;20128;-65
2022/04/04 08:45:04;;;;;;;2.80;1.25;;;20.60;37.80;;;;;;5010495;28;20064;-64
2022/04/04 08:47:31;;;;;;;1.63;1.40;;;20.60;37.90;;;;;;5010521;28;20164;-63
2022/04/04 08:49:58;;;;;;;6.22;2.00;;;20.60;37.80;;;;;;4996594;28;20056;-64
2022/04/04 08:52:25;;;;;;;1.77;1.00;;;20.60;37.90;;;;;;5013403;28;20045;-64
2022/04/04 08:54:51;;;;;;;1.27;1.10;;;20.60;37.90;;;;;;4992945;28;20041;-63
2022/04/04 08:57:17;;;;;;;2.25;1.15;;;20.60;38.00;;;;;;5010096;28;20428;-63
2022/04/04 08:59:44;;;;;;;1.67;1.23;;;20.60;38.10;;;;;;4995094;28;20080;-64
2022/04/04 09:02:11;;;;;;;2.15;1.27;;;20.60;38.10;;;;;;5010368;28;20106;-64
2022/04/04 09:04:38;;;;;;;3.03;1.33;;;20.60;38.80;;;;;;5013888;28;20038;-63
2022/04/04 09:07:09;;;;;;;4.65;1.33;;;20.70;38.20;;;;;;4995704;28;20056;-65
2022/04/04 09:09:47;;;;;;;3.83;1.30;;;20.70;38.10;;;;;;5003854;28;20498;-64
2022/04/04 09:12:19;;;;;;;2.25;1.00;;;20.70;38.10;;;;;;5011539;28;20045;-64
2022/04/04 09:14:51;;;;;;;2.10;1.27;;;20.70;38.00;;;;;;4999270;28;20045;-65
2022/04/04 09:17:23;;;;;;;1.60;1.10;;;20.70;38.10;;;;;;4997959;28;20414;-63
2022/04/04 09:19:48;;;;;;;1.92;0.77;;;20.70;38.10;;;;;;5011503;28;20045;-65
2022/04/04 09:22:20;;;;;;;1.40;0.95;;;20.70;38.10;;;;;;5011040;28;20064;-63
2022/04/04 09:24:50;;;;;;;1.65;0.85;;;20.70;38.10;;;;;;5014459;28;20041;-64
2022/04/04 09:27:21;;;;;;;1.45;1.00;;;20.70;38.10;;;;;;5000854;28;20056;-63
2022/04/04 09:29:48;;;;;;;1.98;1.17;;;20.70;38.10;;;;;;4998334;28;20490;-63
2022/04/04 09:32:15;;;;;;;2.30;0.85;;;20.70;38.10;;;;;;4994092;28;20046;-65
2022/04/04 09:35:04;;;;;;;1.88;0.95;;;20.70;38.10;;;;;;4994747;28;20038;-63
2022/04/04 09:37:33;;;;;;;1.35;0.73;;;20.70;38.00;;;;;;5012570;28;20049;-62
2022/04/04 09:40:09;;;;;;;1.08;0.85;;;20.70;38.00;;;;;;5012527;28;20466;-63
2022/04/04 09:42:36;;;;;;;1.13;0.60;;;20.80;38.10;;;;;;5003367;28;20068;-65
2022/04/04 09:45:05;;;;;;;1.45;0.88;;;20.70;38.00;;;;;;5013552;28;20072;-64
2022/04/04 09:47:49;;;;;;;1.23;0.85;;;20.80;38.20;;;;;;4997939;28;20216;-63
2022/04/04 09:50:41;;;;;;;2.20;0.80;;;20.80;38.10;;;;;;5012578;28;20121;-67
2022/04/04 09:53:19;;;;;;;2.05;0.70;;;20.80;38.10;;;;;;4992601;28;20050;-64
2022/04/04 09:55:55;;;;;;;1.50;0.60;;;20.80;38.00;;;;;;5012609;28;20041;-66
2022/04/04 09:58:26;;;;;;;1.08;0.63;;;20.80;38.00;;;;;;4995943;28;20054;-64
2022/04/04 10:00:54;;;;;;;2.03;1.08;;;20.80;38.00;;;;;;5010860;28;20049;-67
2022/04/04 10:03:20;;;;;;;1.42;0.90;;;20.80;38.10;;;;;;5013349;28;20050;-65
2022/04/04 10:06:00;;;;;;;0.70;0.70;;;20.80;38.00;;;;;;5010414;28;20037;-66
2022/04/04 10:08:26;;;;;;;2.15;0.70;;;20.80;38.00;;;;;;5011288;28;20082;-65
2022/04/04 10:10:54;;;;;;;1.05;0.75;;;20.80;38.00;;;;;;4994484;28;20514;-65
2022/04/04 10:13:20;;;;;;;1.10;0.50;;;20.80;38.00;;;;;;5011409;28;20049;-66
2022/04/04 10:15:46;;;;;;;2.00;0.65;;;20.80;38.00;;;;;;5011646;28;20452;-65
2022/04/04 10:18:12;;;;;;;0.90;0.63;;;20.80;38.80;;;;;;5013384;28;20080;-65
2022/04/04 10:20:37;;;;;;;1.48;0.80;;;20.80;38.00;;;;;;4999849;28;20140;-64
2022/04/04 10:23:05;;;;;;;2.15;0.50;;;20.80;38.00;;;;;;5014556;28;20042;-66
2022/04/04 10:25:34;;;;;;;0.85;0.55;;;20.80;38.00;;;;;;5015598;28;20422;-65
2022/04/04 10:27:59;;;;;;;1.08;0.68;;;20.80;38.00;;;;;;5014628;28;20045;-63
2022/04/04 10:30:34;;;;;;;2.83;0.90;;;20.80;38.00;;;;;;5014640;28;20095;-64
2022/04/04 10:33:01;;;;;;;2.30;0.60;;;20.90;38.10;;;;;;5014039;28;20066;-65
2022/04/04 10:35:30;;;;;;;1.17;0.60;;;20.80;38.10;;;;;;5022721;28;20048;-64
2022/04/04 10:38:03;;;;;;;1.42;0.60;;;20.80;38.10;;;;;;5016754;28;20048;-65
2022/04/04 10:40:31;;;;;;;1.25;0.70;;;20.90;38.20;;;;;;5014662;28;20053;-64
2022/04/04 10:43:14;;;;;;;1.30;0.63;;;20.90;38.20;;;;;;5013833;28;20115;-63
2022/04/04 10:46:00;;;;;;;1.20;0.57;;;20.90;38.40;;;;;;5018212;28;20568;-61
2022/04/04 10:48:47;;;;;;;0.82;0.47;;;20.90;38.40;;;;;;5001184;28;20060;-63
2022/04/04 10:51:26;;;;;;;1.80;0.68;;;20.90;38.50;;;;;;5018285;28;20052;-63
2022/04/04 10:54:12;;;;;;;2.47;0.70;;;20.90;38.60;;;;;;5022860;28;20052;-66
2022/04/04 10:56:41;;;;;;;2.20;0.85;;;20.90;38.70;;;;;;5014162;28;20115;-62
2022/04/04 10:59:16;;;;;;;2.58;0.60;;;20.90;38.80;;;;;;5015087;28;20049;-64
2022/04/04 11:01:46;;;;;;;0.68;0.47;;;20.90;38.90;;;;;;5032352;28;20336;-66
2022/04/04 11:04:26;;;;;;;1.23;0.90;;;20.90;38.80;;;;;;5014720;28;20509;-64
2022/04/04 11:09:52;;;;;;;1.33;0.60;;;21.00;39.00;;;;;;5015632;28;20133;-64
2022/04/04 11:12:20;;;;;;;1.45;0.65;;;21.00;39.10;;;;;;5013874;28;20148;-63
2022/04/04 11:14:54;;;;;;;3.45;0.70;;;21.00;39.20;;;;;;5005334;28;20334;-63
2022/04/04 11:17:23;;;;;;;1.08;0.68;;;21.00;39.30;;;;;;5014870;28;20061;-60
2022/04/04 11:20:10;;;;;;;2.22;0.80;;;21.00;39.30;;;;;;5017475;28;20112;-63
2022/04/04 11:22:41;;;;;;;1.92;0.80;;;21.00;39.40;;;;;;5005467;28;20108;-64
2022/04/04 11:25:13;;;;;;;1.90;0.70;;;21.00;39.40;;;;;;5011283;28;20037;-63
2022/04/04 11:27:40;;;;;;;0.85;0.70;;;21.00;39.40;;;;;;4998146;28;20111;-63
2022/04/04 11:30:11;;;;;;;1.90;0.90;;;21.00;40.20;;;;;;5016760;28;20049;-64
2022/04/04 11:32:40;;;;;;;2.65;0.55;;;21.00;39.50;;;;;;5017796;28;20045;-61
2022/04/04 11:35:10;;;;;;;1.17;0.60;;;21.00;39.50;;;;;;5014481;28;20558;-63
2022/04/04 11:37:48;;;;;;;1.27;0.50;;;21.00;39.60;;;;;;5012882;28;20050;-64
2022/04/04 11:40:23;;;;;;;1.60;0.50;;;21.10;40.40;;;;;;5021556;28;20088;-63
2022/04/04 11:42:51;;;;;;;1.10;0.75;;;21.10;39.70;;;;;;5020692;28;20057;-65
2022/04/04 11:45:36;;;;;;;0.63;0.40;;;21.10;39.70;;;;;;5016053;28;20100;-61
2022/04/04 11:48:23;;;;;;;1.17;0.35;;;21.10;39.70;;;;;;5015485;28;20400;-62
2022/04/04 11:50:51;;;;;;;1.30;0.75;;;21.10;39.70;;;;;;5013398;28;20045;-63
2022/04/04 11:53:22;;;;;;;1.35;0.68;;;21.10;39.70;;;;;;5013918;28;20053;-63
2022/04/04 11:55:48;;;;;;;0.68;0.43;;;21.10;39.80;;;;;;5016281;28;20057;-63
2022/04/04 11:58:16;;;;;;;0.70;0.25;;;21.10;39.70;;;;;;5014450;28;20540;-63
2022/04/04 12:00:47;;;;;;;0.88;0.40;;;21.10;39.70;;;;;;5014275;28;20525;-63
2022/04/04 12:03:15;;;;;;;1.00;0.65;;;21.10;39.80;;;;;;5014002;28;20382;-62
2022/04/04 12:05:44;;;;;;;1.73;0.57;;;21.10;39.90;;;;;;5012807;28;20576;-62
2022/04/04 12:08:11;;;;;;;0.98;0.55;;;21.10;40.00;;;;;;5014119;28;20537;-62
2022/04/04 12:10:38;;;;;;;1.80;0.52;;;21.10;40.10;;;;;;5016152;28;20387;-62
2022/04/04 12:13:12;;;;;;;1.20;0.45;;;21.10;40.20;;;;;;5014829;28;20437;-64
2022/04/04 12:15:42;;;;;;;0.73;0.57;;;21.10;40.30;;;;;;5013948;28;20100;-62
2022/04/04 12:18:08;;;;;;;0.77;0.63;;;21.10;40.30;;;;;;5016407;28;20136;-62
2022/04/04 12:20:38;;;;;;;0.63;0.52;;;21.10;40.20;;;;;;5006426;28;20380;-63
2022/04/04 12:25:53;;;;;;;1.00;0.45;;;21.20;40.60;;;;;;5012342;28;20057;-63
2022/04/04 12:28:25;;;;;;;0.28;0.28;;;21.10;40.60;;;;;;5012985;28;20506;-63
2022/04/04 12:30:51;;;;;;;0.70;0.40;;;21.20;40.60;;;;;;4998445;28;20106;-66
2022/04/04 12:33:17;;;;;;;1.00;0.40;;;21.20;40.60;;;;;;5015050;28;20671;-64
2022/04/04 12:35:47;;;;;;;0.70;0.45;;;21.20;40.70;;;;;;5014766;28;20045;-63
2022/04/04 12:38:27;;;;;;;0.60;0.32;;;21.20;40.70;;;;;;5015071;28;20050;-63
2022/04/04 12:41:09;;;;;;;0.67;0.50;;;21.20;40.70;;;;;;5014463;28;20085;-62
2022/04/04 12:43:40;;;;;;;0.30;0.30;;;21.20;40.70;;;;;;5013260;28;20054;-63
2022/04/04 12:46:07;;;;;;;0.43;0.30;;;21.20;40.70;;;;;;5013906;28;20125;-65
2022/04/04 12:48:40;;;;;;;1.50;0.50;;;21.20;40.70;;;;;;4997865;28;20560;-63
2022/04/04 12:51:24;;;;;;;0.40;0.40;;;21.20;40.70;;;;;;4997301;28;20085;-62
2022/04/04 12:53:50;;;;;;;0.40;0.22;;;21.20;40.80;;;;;;5013976;28;20057;-63
2022/04/04 12:56:16;;;;;;;0.60;0.40;;;21.20;40.70;;;;;;5016342;28;20056;-63
2022/04/04 12:58:42;;;;;;;1.95;0.50;;;21.20;40.70;;;;;;4995706;28;20068;-62
2022/04/04 13:01:13;;;;;;;0.65;0.30;;;21.20;40.80;;;;;;5013212;28;20108;-63